Odessa, Minnesota
Current Conditions -  °F | °C
As of 10:33 AM on Thursday 29 Jan 2015 (Local Time) from KVVV Reporting Station
Overcast Overcast  
Wind Chill:   Ceiling: 1600
Heat Index: 25°   Visibility: 10mi
Dew Point: 18°   Wind: 24mph
Humidity: 74%   Direction: 350°N
Pressure: 30.4"   Gusts: 31mph
Location:  45.26°N, 96.33°W
Report Text: KVVV 291633Z AUTO 35021G27KT 10SM OVC016 M04/M08 A3040 RMK AO2
Loading
Personal Weather Stations






























Interactive Weather Map New forecast layout! Learn more

10-Day Weather Forecast

Advertisements
Track Severe Weather on mobile